Time;durP1;ratioP1;P1;durP2;ratioP2;P2;SDS_P1;SDS_P2;PMS_P1;PMS_P2;Temp;Humidity;BMP_temperature;BMP_pressure;BME280_temperature;BME280_humidity;BME280_pressure;Samples;Min_cycle;Max_cycle;Signal;HPM_P1;HPM_P2
2021/11/18 00:02:01;;;;;;;23.35;10.98;;;7.50;99.90;;;;;;5072624;28;20038;-57
2021/11/18 00:04:27;;;;;;;19.88;11.68;;;7.40;99.90;;;;;;5091278;28;20066;-56
2021/11/18 00:06:52;;;;;;;17.77;11.18;;;7.50;99.90;;;;;;5090931;28;20122;-57
2021/11/18 00:09:20;;;;;;;19.10;11.68;;;7.40;99.90;;;;;;5091569;28;20115;-56
2021/11/18 00:11:48;;;;;;;23.17;12.68;;;7.40;99.90;;;;;;5090926;28;20067;-56
2021/11/18 00:14:14;;;;;;;19.77;11.75;;;7.40;99.90;;;;;;5091560;28;20035;-59
2021/11/18 00:16:40;;;;;;;20.70;11.52;;;7.50;99.90;;;;;;5091190;28;20036;-58
2021/11/18 00:19:06;;;;;;;20.08;12.10;;;7.40;99.90;;;;;;5073346;28;20163;-57
2021/11/18 00:21:42;;;;;;;23.58;13.10;;;7.40;99.90;;;;;;5073240;28;20031;-57
2021/11/18 00:24:10;;;;;;;19.38;11.65;;;7.40;99.90;;;;;;5091813;28;20036;-58
2021/11/18 00:26:37;;;;;;;21.15;11.88;;;7.40;99.90;;;;;;5090840;28;20028;-57
2021/11/18 00:29:05;;;;;;;21.17;11.88;;;7.50;99.90;;;;;;5091477;28;20042;-57
2021/11/18 00:31:35;;;;;;;21.85;12.60;;;7.50;99.90;;;;;;5091160;28;20043;-58
2021/11/18 00:34:02;;;;;;;20.63;12.60;;;7.60;99.90;;;;;;5091400;28;20028;-55
2021/11/18 00:36:29;;;;;;;18.38;12.18;;;7.70;99.90;;;;;;5091274;28;20035;-56
2021/11/18 00:38:55;;;;;;;21.65;12.48;;;7.70;99.90;;;;;;5090484;28;20052;-57
2021/11/18 00:41:22;;;;;;;20.70;12.90;;;7.60;99.90;;;;;;5091401;28;20035;-57
2021/11/18 00:43:49;;;;;;;22.52;12.25;;;7.60;99.90;;;;;;5090740;28;20032;-57
2021/11/18 00:46:14;;;;;;;25.75;13.40;;;7.60;99.90;;;;;;5072426;28;20044;-56
2021/11/18 00:48:40;;;;;;;25.17;13.13;;;7.50;99.90;;;;;;5090688;28;20034;-56
2021/11/18 00:51:09;;;;;;;23.48;13.23;;;7.50;99.90;;;;;;5091166;28;20024;-57
2021/11/18 00:53:39;;;;;;;21.25;12.10;;;7.60;99.90;;;;;;5072272;28;20024;-59
2021/11/18 00:56:05;;;;;;;18.73;11.90;;;7.50;99.90;;;;;;5090930;28;20028;-61
2021/11/18 00:58:31;;;;;;;19.08;11.68;;;7.50;99.90;;;;;;5091066;28;20031;-57
2021/11/18 01:00:57;;;;;;;25.65;11.75;;;7.40;99.90;;;;;;5090112;28;20025;-56
2021/11/18 01:03:24;;;;;;;20.02;11.93;;;7.50;99.90;;;;;;5090940;28;20024;-57
2021/11/18 01:05:52;;;;;;;18.17;11.90;;;7.50;99.90;;;;;;5090158;28;20035;-56
2021/11/18 01:08:18;;;;;;;19.73;11.63;;;7.40;99.90;;;;;;5090908;28;20118;-56
2021/11/18 01:10:58;;;;;;;17.70;11.38;;;7.40;99.90;;;;;;5089953;28;20020;-56
2021/11/18 01:13:25;;;;;;;18.67;11.77;;;7.40;99.90;;;;;;5091020;28;20366;-57
2021/11/18 01:15:50;;;;;;;20.00;11.60;;;7.40;99.90;;;;;;5093656;28;20024;-56
2021/11/18 01:18:17;;;;;;;20.52;11.63;;;7.40;99.90;;;;;;5065223;28;20063;-56
2021/11/18 01:20:44;;;;;;;19.80;12.55;;;7.30;99.90;;;;;;5054331;28;20123;-56
2021/11/18 01:23:13;;;;;;;20.17;11.57;;;7.30;99.90;;;;;;5054987;28;20035;-57
2021/11/18 01:25:39;;;;;;;23.77;12.07;;;7.20;99.90;;;;;;5053851;28;20109;-57
2021/11/18 01:28:07;;;;;;;19.00;12.13;;;7.20;99.90;;;;;;5036070;28;20029;-56
2021/11/18 01:30:34;;;;;;;18.95;12.43;;;7.20;99.90;;;;;;5053954;28;20033;-57
2021/11/18 01:33:02;;;;;;;17.98;11.95;;;7.20;99.90;;;;;;5053400;28;20135;-57
2021/11/18 01:35:28;;;;;;;20.10;12.45;;;7.10;99.90;;;;;;5053961;28;20036;-56
2021/11/18 01:37:53;;;;;;;22.95;12.43;;;7.10;99.90;;;;;;5035413;28;20559;-57
2021/11/18 01:40:24;;;;;;;26.02;13.90;;;7.10;99.90;;;;;;5053865;28;20104;-57
2021/11/18 01:42:52;;;;;;;26.02;13.55;;;7.10;99.90;;;;;;5053314;28;20029;-56
2021/11/18 01:45:19;;;;;;;17.70;11.52;;;7.20;99.90;;;;;;5053696;28;20104;-57
2021/11/18 01:47:46;;;;;;;21.85;12.52;;;7.10;99.90;;;;;;5034851;28;20040;-57
2021/11/18 01:50:15;;;;;;;19.20;12.20;;;7.00;99.90;;;;;;5053632;28;20100;-56
2021/11/18 01:52:42;;;;;;;24.55;13.65;;;7.20;99.90;;;;;;5052991;28;20017;-57
2021/11/18 01:55:08;;;;;;;21.65;12.05;;;7.20;99.90;;;;;;5053926;28;20071;-56
2021/11/18 01:57:36;;;;;;;19.55;12.20;;;7.20;99.90;;;;;;5053489;28;20114;-56
2021/11/18 02:00:09;;;;;;;22.00;12.80;;;7.20;99.90;;;;;;5052859;28;20108;-58
2021/11/18 02:02:35;;;;;;;21.92;12.52;;;7.20;99.90;;;;;;5053604;28;20025;-57
2021/11/18 02:05:21;;;;;;;22.38;12.43;;;7.10;99.90;;;;;;5052904;28;20090;-56
2021/11/18 02:07:48;;;;;;;21.40;11.40;;;7.10;99.90;;;;;;5034844;28;20112;-56
2021/11/18 02:10:24;;;;;;;19.58;12.73;;;7.20;99.90;;;;;;5053261;28;20441;-57
2021/11/18 02:12:50;;;;;;;22.88;11.95;;;7.20;99.90;;;;;;5052668;28;20029;-57
2021/11/18 02:15:30;;;;;;;23.30;12.10;;;7.20;99.90;;;;;;5053158;28;20060;-57
2021/11/18 02:17:57;;;;;;;18.95;11.52;;;7.20;99.90;;;;;;5060854;28;20506;-56
2021/11/18 02:20:33;;;;;;;20.70;11.95;;;7.20;99.90;;;;;;5073083;28;20029;-56
2021/11/18 02:23:00;;;;;;;23.33;12.10;;;7.20;99.90;;;;;;5072723;28;20111;-57
2021/11/18 02:25:31;;;;;;;21.90;12.07;;;7.20;99.90;;;;;;5072163;28;20048;-56
2021/11/18 02:27:58;;;;;;;21.80;12.38;;;7.20;99.90;;;;;;5072418;28;20108;-56
2021/11/18 02:30:26;;;;;;;18.65;11.85;;;7.20;99.90;;;;;;5072951;28;20032;-57
2021/11/18 02:32:54;;;;;;;18.92;10.95;;;7.20;99.90;;;;;;5072568;28;20086;-57
2021/11/18 02:35:27;;;;;;;25.95;13.45;;;7.20;99.90;;;;;;5072599;28;20035;-57
2021/11/18 02:37:54;;;;;;;19.55;11.98;;;7.30;99.90;;;;;;5072210;28;20032;-57
2021/11/18 02:40:22;;;;;;;18.40;11.52;;;7.30;99.90;;;;;;5072329;28;20024;-57
2021/11/18 02:42:48;;;;;;;18.30;10.43;;;7.30;99.90;;;;;;5053895;28;20029;-57
2021/11/18 02:45:18;;;;;;;19.35;11.50;;;7.30;99.90;;;;;;5072452;28;20032;-57
2021/11/18 02:47:44;;;;;;;18.98;10.60;;;7.30;99.90;;;;;;5071892;28;20044;-57
2021/11/18 02:50:13;;;;;;;20.20;11.80;;;7.30;99.90;;;;;;5072366;28;20032;-57
2021/11/18 02:52:39;;;;;;;21.20;11.98;;;7.40;99.90;;;;;;5072386;28;20082;-57
2021/11/18 02:55:12;;;;;;;19.25;12.10;;;7.40;99.90;;;;;;5071475;28;20099;-57
2021/11/18 02:57:38;;;;;;;19.52;11.50;;;7.40;99.90;;;;;;5072206;28;20048;-56
2021/11/18 03:00:08;;;;;;;16.83;10.15;;;7.40;99.90;;;;;;5071850;28;20178;-56
2021/11/18 03:02:34;;;;;;;17.95;10.82;;;7.40;99.90;;;;;;5072528;28;20039;-56
2021/11/18 03:04:59;;;;;;;15.93;11.02;;;7.40;99.90;;;;;;5071186;28;20024;-56
2021/11/18 03:07:25;;;;;;;21.10;10.55;;;7.40;99.90;;;;;;5071980;28;20355;-56
2021/11/18 03:09:51;;;;;;;16.50;11.18;;;7.40;99.90;;;;;;5071026;28;20025;-56
2021/11/18 03:12:16;;;;;;;18.75;11.18;;;7.40;99.90;;;;;;5071611;28;20040;-56
2021/11/18 03:14:42;;;;;;;18.75;10.90;;;7.40;99.90;;;;;;5071915;28;20025;-56
2021/11/18 03:17:08;;;;;;;18.42;11.43;;;7.40;99.90;;;;;;5071292;28;20374;-56
2021/11/18 03:19:33;;;;;;;14.77;10.00;;;7.30;99.90;;;;;;5071838;28;20090;-57
2021/11/18 03:21:59;;;;;;;19.08;11.20;;;7.20;99.90;;;;;;5071249;28;20028;-56
2021/11/18 03:24:25;;;;;;;21.55;11.30;;;7.10;99.90;;;;;;5054040;28;20121;-56
2021/11/18 03:26:52;;;;;;;20.15;10.82;;;7.20;99.90;;;;;;5070986;28;20024;-56
2021/11/18 03:29:17;;;;;;;25.15;12.30;;;7.10;99.90;;;;;;5071756;28;20040;-56
2021/11/18 03:31:43;;;;;;;21.38;11.73;;;7.00;99.90;;;;;;5053776;28;20029;-56
2021/11/18 03:34:12;;;;;;;19.70;10.88;;;6.90;99.90;;;;;;5072137;28;20433;-56
2021/11/18 03:36:38;;;;;;;18.70;11.68;;;6.90;99.90;;;;;;5071434;28;20086;-57
2021/11/18 03:39:11;;;;;;;19.50;11.27;;;6.80;99.90;;;;;;5052872;28;20235;-57
2021/11/18 03:41:39;;;;;;;22.05;11.38;;;6.80;99.90;;;;;;5071460;28;20020;-57
2021/11/18 03:44:07;;;;;;;20.15;11.93;;;6.90;99.90;;;;;;5070850;28;20032;-57
2021/11/18 03:46:37;;;;;;;20.17;11.20;;;6.80;99.90;;;;;;5071081;28;20047;-56
2021/11/18 03:49:03;;;;;;;20.15;11.73;;;6.70;99.90;;;;;;5070665;28;20111;-56
2021/11/18 03:51:32;;;;;;;21.42;11.88;;;6.80;99.90;;;;;;5053106;28;20082;-57
2021/11/18 03:53:58;;;;;;;35.45;13.25;;;6.90;99.90;;;;;;5052767;28;20033;-56
2021/11/18 03:56:28;;;;;;;18.45;11.13;;;6.80;99.90;;;;;;5071359;28;20062;-57
2021/11/18 03:58:55;;;;;;;19.48;12.18;;;6.80;99.90;;;;;;5070443;28;20462;-56
2021/11/18 04:01:20;;;;;;;20.95;13.30;;;6.80;99.90;;;;;;5071291;28;20031;-57
2021/11/18 04:03:47;;;;;;;26.50;12.70;;;6.80;99.90;;;;;;5070757;28;20024;-61
2021/11/18 04:06:13;;;;;;;22.17;13.60;;;6.80;99.90;;;;;;5071275;28;20029;-56
2021/11/18 04:08:39;;;;;;;26.92;13.15;;;6.80;99.90;;;;;;5071219;28;20029;-56
2021/11/18 04:11:04;;;;;;;26.95;13.40;;;6.80;99.90;;;;;;5052626;28;20031;-57
2021/11/18 04:13:30;;;;;;;27.80;13.35;;;6.60;99.90;;;;;;5071045;28;20036;-56
2021/11/18 04:15:56;;;;;;;28.13;15.52;;;6.70;99.90;;;;;;5070297;28;20056;-57
2021/11/18 04:18:24;;;;;;;25.42;13.35;;;6.70;99.90;;;;;;5053000;28;20053;-57
2021/11/18 04:20:52;;;;;;;26.55;14.23;;;6.80;99.90;;;;;;5070776;28;20029;-56
2021/11/18 04:23:21;;;;;;;27.38;14.80;;;6.80;99.90;;;;;;5070648;28;20474;-55
2021/11/18 04:25:47;;;;;;;21.92;13.57;;;6.90;99.90;;;;;;5070846;28;20090;-57
2021/11/18 04:28:13;;;;;;;22.92;13.77;;;6.80;99.90;;;;;;5070854;28;20475;-56
2021/11/18 04:30:47;;;;;;;25.70;12.90;;;6.80;99.90;;;;;;5070963;28;20081;-56
2021/11/18 04:33:13;;;;;;;22.60;13.55;;;6.90;99.90;;;;;;5071312;28;20028;-56
2021/11/18 04:35:40;;;;;;;24.90;13.70;;;6.80;99.90;;;;;;5052867;28;20430;-56
2021/11/18 04:38:06;;;;;;;25.20;15.15;;;6.80;99.90;;;;;;5070092;28;20036;-57
2021/11/18 04:40:32;;;;;;;29.65;14.45;;;6.70;99.90;;;;;;5052639;28;20028;-56
2021/11/18 04:43:00;;;;;;;27.10;14.13;;;6.80;99.90;;;;;;5069974;28;20064;-56
2021/11/18 04:45:26;;;;;;;28.55;15.65;;;6.70;99.90;;;;;;5070801;28;20025;-56
2021/11/18 04:47:52;;;;;;;26.52;14.73;;;6.80;99.90;;;;;;5069825;28;20037;-57
2021/11/18 04:50:19;;;;;;;23.48;14.00;;;6.80;99.90;;;;;;5073377;28;20040;-57
2021/11/18 04:52:45;;;;;;;27.20;14.40;;;6.80;99.90;;;;;;5056498;28;20101;-57
2021/11/18 04:55:13;;;;;;;27.70;15.48;;;6.90;99.90;;;;;;5073853;28;20017;-56
2021/11/18 04:57:39;;;;;;;23.00;14.45;;;6.80;99.90;;;;;;5074407;28;20032;-57
2021/11/18 05:00:11;;;;;;;26.35;13.63;;;6.80;99.90;;;;;;5055472;28;20047;-56
2021/11/18 05:02:37;;;;;;;22.77;13.75;;;6.90;99.90;;;;;;5074499;28;20032;-56
2021/11/18 05:05:04;;;;;;;26.23;13.68;;;6.90;99.90;;;;;;5073713;28;20120;-56
2021/11/18 05:07:30;;;;;;;23.35;13.70;;;6.90;99.90;;;;;;5073866;28;20029;-56
2021/11/18 05:09:56;;;;;;;21.23;13.65;;;6.90;99.90;;;;;;5055454;28;20179;-56
2021/11/18 05:12:23;;;;;;;27.83;13.57;;;6.90;99.90;;;;;;5074340;28;20067;-56
2021/11/18 05:14:49;;;;;;;25.17;14.00;;;6.90;99.90;;;;;;5073886;28;20028;-57
2021/11/18 05:17:15;;;;;;;22.80;13.25;;;6.90;99.90;;;;;;5073930;28;20098;-56
2021/11/18 05:19:41;;;;;;;21.58;13.07;;;7.00;99.90;;;;;;5074359;28;20385;-56
2021/11/18 05:22:07;;;;;;;22.30;13.73;;;7.00;99.90;;;;;;5073542;28;20054;-56
2021/11/18 05:24:33;;;;;;;22.25;13.63;;;7.00;99.90;;;;;;5056006;28;20025;-56
2021/11/18 05:26:59;;;;;;;24.63;13.77;;;7.00;99.90;;;;;;5055330;28;20063;-57
2021/11/18 05:29:24;;;;;;;20.60;12.45;;;7.00;99.90;;;;;;5073564;28;20449;-56
2021/11/18 05:31:50;;;;;;;21.27;13.70;;;7.00;99.90;;;;;;5074161;28;20100;-57
2021/11/18 05:34:16;;;;;;;25.67;14.90;;;7.00;99.90;;;;;;5055935;28;20119;-56
2021/11/18 05:36:42;;;;;;;22.25;12.82;;;7.00;99.90;;;;;;5073936;28;20466;-55
2021/11/18 05:39:08;;;;;;;20.85;12.48;;;7.10;99.90;;;;;;5072639;28;20070;-56
2021/11/18 05:41:34;;;;;;;23.05;13.85;;;7.10;99.90;;;;;;5073598;28;20028;-56
2021/11/18 05:44:03;;;;;;;24.60;13.52;;;7.10;99.90;;;;;;5072922;28;20194;-57
2021/11/18 05:46:32;;;;;;;21.30;13.60;;;7.10;99.90;;;;;;5073378;28;20040;-56
2021/11/18 05:48:59;;;;;;;25.20;14.32;;;7.20;99.90;;;;;;5072944;28;20066;-57
2021/11/18 05:51:25;;;;;;;26.00;13.27;;;7.20;99.90;;;;;;5073453;28;20416;-56
2021/11/18 05:53:51;;;;;;;26.73;14.45;;;7.20;99.90;;;;;;5073314;28;20389;-57
2021/11/18 05:56:20;;;;;;;21.52;13.68;;;7.20;99.90;;;;;;5073099;28;20126;-56
2021/11/18 05:58:51;;;;;;;27.52;14.68;;;7.20;99.90;;;;;;5073294;28;20426;-57
2021/11/18 06:01:19;;;;;;;22.17;14.37;;;7.20;99.90;;;;;;5072511;28;20028;-56
2021/11/18 06:03:45;;;;;;;26.45;13.80;;;7.10;99.90;;;;;;5073366;28;20035;-57
2021/11/18 06:06:11;;;;;;;25.20;14.65;;;7.10;99.90;;;;;;5072433;28;20025;-57
2021/11/18 06:08:37;;;;;;;26.25;14.15;;;7.10;99.90;;;;;;5072684;28;20539;-56
2021/11/18 06:11:05;;;;;;;38.38;14.18;;;7.00;99.90;;;;;;5054457;28;20047;-56
2021/11/18 06:13:32;;;;;;;25.25;14.07;;;7.10;99.90;;;;;;5054615;28;20126;-56
2021/11/18 06:15:58;;;;;;;22.70;13.57;;;6.90;99.90;;;;;;5072001;28;20107;-56
2021/11/18 06:18:23;;;;;;;32.33;12.88;;;6.90;99.90;;;;;;5072183;28;20484;-57
2021/11/18 06:20:49;;;;;;;21.73;12.75;;;6.90;99.90;;;;;;5072800;28;20024;-57
2021/11/18 06:23:15;;;;;;;22.25;12.77;;;6.90;99.90;;;;;;5071922;28;20035;-56
2021/11/18 06:25:41;;;;;;;24.98;13.55;;;6.80;99.90;;;;;;5054609;28;20383;-56
2021/11/18 06:28:08;;;;;;;22.25;13.68;;;6.80;99.90;;;;;;5053987;28;20558;-57
2021/11/18 06:30:46;;;;;;;29.83;13.80;;;6.80;99.90;;;;;;5072134;28;20025;-56
2021/11/18 06:33:12;;;;;;;20.80;12.57;;;6.60;99.90;;;;;;5053600;28;20052;-56
2021/11/18 06:35:39;;;;;;;23.40;13.27;;;6.60;99.90;;;;;;5072702;28;20067;-56
2021/11/18 06:38:05;;;;;;;27.63;14.10;;;6.70;99.90;;;;;;5077142;28;20115;-57
2021/11/18 06:40:31;;;;;;;21.73;12.75;;;6.60;99.90;;;;;;5074215;28;20111;-57
2021/11/18 06:42:57;;;;;;;23.20;13.10;;;6.70;99.90;;;;;;5073035;28;20028;-59
2021/11/18 06:45:26;;;;;;;21.58;13.18;;;6.80;99.90;;;;;;5073778;28;20024;-57
2021/11/18 06:47:52;;;;;;;27.33;13.65;;;6.80;99.90;;;;;;5091598;28;20040;-57
2021/11/18 06:50:18;;;;;;;21.25;12.18;;;6.80;99.90;;;;;;5073510;28;20485;-58
2021/11/18 06:52:44;;;;;;;24.52;13.40;;;6.90;99.90;;;;;;5082223;28;20040;-57
2021/11/18 06:55:11;;;;;;;29.98;14.20;;;6.90;99.90;;;;;;5053051;28;20024;-57
2021/11/18 06:57:37;;;;;;;21.55;12.90;;;6.90;99.90;;;;;;5058485;28;20048;-58
2021/11/18 07:00:06;;;;;;;28.48;13.68;;;7.00;99.90;;;;;;5069966;28;20056;-56
2021/11/18 07:02:31;;;;;;;19.60;12.77;;;7.00;99.90;;;;;;5071857;28;20035;-56
2021/11/18 07:04:57;;;;;;;29.48;14.43;;;7.20;99.90;;;;;;5066726;28;20032;-57
2021/11/18 07:07:23;;;;;;;24.45;12.73;;;7.10;99.90;;;;;;5071155;28;20028;-59
2021/11/18 07:09:49;;;;;;;23.13;12.95;;;7.20;99.90;;;;;;5081297;28;20033;-56
2021/11/18 07:12:17;;;;;;;23.55;13.05;;;7.10;99.90;;;;;;5061144;28;20020;-56
2021/11/18 07:14:45;;;;;;;24.80;13.18;;;6.90;99.90;;;;;;5079190;28;20111;-56
2021/11/18 07:17:10;;;;;;;27.80;13.18;;;6.80;99.90;;;;;;5074397;28;20504;-57
2021/11/18 07:19:37;;;;;;;25.40;13.95;;;6.70;99.90;;;;;;5052065;28;20029;-58
2021/11/18 07:22:03;;;;;;;26.55;13.27;;;6.80;99.90;;;;;;5076237;28;20036;-56
2021/11/18 07:24:30;;;;;;;24.67;13.43;;;6.70;99.90;;;;;;5072620;28;20536;-57
2021/11/18 07:26:56;;;;;;;24.88;13.13;;;6.80;99.90;;;;;;5078350;28;20436;-56
2021/11/18 07:29:22;;;;;;;22.42;13.32;;;6.70;99.90;;;;;;5090262;28;20028;-56
2021/11/18 07:31:48;;;;;;;31.27;14.55;;;6.80;99.90;;;;;;5090188;28;20413;-58
2021/11/18 07:34:16;;;;;;;26.85;14.07;;;6.70;99.90;;;;;;5090130;28;20032;-57
2021/11/18 07:36:42;;;;;;;27.13;13.75;;;6.80;99.90;;;;;;5072585;28;20091;-58
2021/11/18 07:39:08;;;;;;;25.70;14.25;;;6.90;99.90;;;;;;5071735;28;20028;-58
2021/11/18 07:41:34;;;;;;;27.98;15.38;;;6.90;99.90;;;;;;5090394;28;20047;-59
2021/11/18 07:44:00;;;;;;;29.35;14.70;;;7.00;99.90;;;;;;5071563;28;20146;-57
2021/11/18 07:46:25;;;;;;;25.40;13.88;;;7.00;99.90;;;;;;5089951;28;20519;-56
2021/11/18 07:48:51;;;;;;;37.60;16.98;;;7.20;99.90;;;;;;5064972;28;20036;-61
2021/11/18 07:51:20;;;;;;;27.15;15.35;;;7.20;99.90;;;;;;5069946;28;20505;-57
2021/11/18 07:53:47;;;;;;;26.92;14.40;;;7.30;99.90;;;;;;5069441;28;20066;-57
2021/11/18 07:56:14;;;;;;;24.33;14.95;;;7.30;99.90;;;;;;5069941;28;20040;-57
2021/11/18 07:58:40;;;;;;;27.63;15.32;;;7.50;99.90;;;;;;5070656;28;20024;-58
2021/11/18 08:01:06;;;;;;;26.23;13.75;;;7.40;99.90;;;;;;5070080;28;20362;-63
2021/11/18 08:03:33;;;;;;;27.10;15.88;;;7.50;99.90;;;;;;5090724;28;20477;-57
2021/11/18 08:06:00;;;;;;;31.27;15.02;;;7.60;99.90;;;;;;5072212;28;20024;-57
2021/11/18 08:08:26;;;;;;;28.10;16.40;;;7.50;99.90;;;;;;5090767;28;20552;-57
2021/11/18 08:10:53;;;;;;;23.63;11.65;;;7.60;99.90;;;;;;5066989;28;20108;-59
2021/11/18 08:13:18;;;;;;;26.98;14.48;;;8.40;99.90;;;;;;5059290;28;20124;-60
2021/11/18 08:15:45;;;;;;;27.17;14.57;;;8.20;99.90;;;;;;5090284;28;20123;-60
2021/11/18 08:18:11;;;;;;;23.65;13.77;;;9.90;99.90;;;;;;5089218;28;20131;-59
2021/11/18 08:20:37;;;;;;;25.30;15.25;;;9.70;99.90;;;;;;5071787;28;20111;-59
2021/11/18 08:23:04;;;;;;;33.50;14.98;;;9.80;99.90;;;;;;5070172;28;20127;-58
2021/11/18 08:25:33;;;;;;;24.90;16.10;;;9.40;99.90;;;;;;5077532;28;20021;-57
2021/11/18 08:27:59;;;;;;;29.60;16.10;;;8.90;99.90;;;;;;5089651;28;20544;-68
2021/11/18 08:30:29;;;;;;;31.17;17.13;;;8.60;99.90;;;;;;5052460;28;20067;-57
2021/11/18 08:32:58;;;;;;;34.50;17.42;;;8.30;99.90;;;;;;5061057;28;20048;-56
2021/11/18 08:35:31;;;;;;;28.80;15.68;;;8.10;99.90;;;;;;5079330;28;20104;-57
2021/11/18 08:38:09;;;;;;;28.73;15.02;;;8.10;99.90;;;;;;5056607;28;20032;-57
2021/11/18 08:40:36;;;;;;;23.38;14.77;;;8.00;99.90;;;;;;5081226;28;20026;-57
2021/11/18 08:43:03;;;;;;;28.33;15.05;;;8.00;99.90;;;;;;5069314;28;20024;-58
2021/11/18 08:45:29;;;;;;;31.90;16.10;;;8.00;99.90;;;;;;5088828;28;20032;-59
2021/11/18 08:47:54;;;;;;;31.08;15.48;;;8.10;99.90;;;;;;5089540;28;20112;-57
2021/11/18 08:50:22;;;;;;;48.38;16.70;;;8.00;99.90;;;;;;5069585;28;20088;-61
2021/11/18 08:52:50;;;;;;;48.67;22.77;;;8.50;99.90;;;;;;5071337;28;20531;-61
2021/11/18 08:55:21;;;;;;;27.20;15.98;;;10.50;99.90;;;;;;5055196;28;20032;-56
2021/11/18 08:57:48;;;;;;;25.33;14.27;;;9.40;99.90;;;;;;5073783;28;20028;-57
2021/11/18 09:00:28;;;;;;;24.33;13.05;;;9.00;99.90;;;;;;5072157;28;20024;-57
2021/11/18 09:02:55;;;;;;;31.40;13.77;;;8.80;99.90;;;;;;5065220;28;20025;-59
2021/11/18 09:05:23;;;;;;;27.20;13.57;;;10.30;99.90;;;;;;5082124;28;20358;-58
2021/11/18 09:07:48;;;;;;;23.98;13.90;;;11.00;99.90;;;;;;5094057;28;20039;-57
2021/11/18 09:10:15;;;;;;;28.20;14.40;;;9.90;99.90;;;;;;5075641;28;20028;-58
2021/11/18 09:12:43;;;;;;;29.00;14.95;;;9.30;99.90;;;;;;5093857;28;20024;-59
2021/11/18 09:15:11;;;;;;;31.27;14.85;;;9.10;99.90;;;;;;5074572;28;20065;-58
2021/11/18 09:17:37;;;;;;;26.80;14.98;;;9.00;99.90;;;;;;5077089;28;20045;-57
2021/11/18 09:20:07;;;;;;;26.20;14.65;;;8.90;99.90;;;;;;5053939;28;20381;-59
2021/11/18 09:22:33;;;;;;;29.85;16.10;;;8.90;99.90;;;;;;5071053;28;20028;-57
2021/11/18 09:25:01;;;;;;;30.17;16.90;;;8.90;99.90;;;;;;5092723;28;20037;-57
2021/11/18 09:27:36;;;;;;;31.38;17.38;;;9.00;99.90;;;;;;5092251;28;20126;-57
2021/11/18 09:30:08;;;;;;;28.92;16.48;;;8.90;99.90;;;;;;5074228;28;20114;-69
2021/11/18 09:32:34;;;;;;;;;;;8.90;99.90;;;;;;5092748;28;20458;-58
2021/11/18 09:35:04;;;;;;;27.88;15.65;;;8.80;99.90;;;;;;5092296;28;19904;-56
2021/11/18 09:37:30;;;;;;;27.88;16.13;;;9.00;99.90;;;;;;5074118;28;20032;-57
2021/11/18 09:39:55;;;;;;;27.15;16.15;;;8.60;99.90;;;;;;5072997;28;20023;-57
2021/11/18 09:42:29;;;;;;;26.48;15.57;;;8.80;99.90;;;;;;5054269;28;20028;-58
2021/11/18 09:45:22;;;;;;;28.80;16.63;;;8.60;99.90;;;;;;5072492;28;20075;-56
2021/11/18 09:47:54;;;;;;;27.30;16.27;;;9.00;99.90;;;;;;5071801;28;20038;-56
2021/11/18 09:50:31;;;;;;;26.90;16.35;;;9.20;99.90;;;;;;5071566;28;20037;-57
2021/11/18 09:53:11;;;;;;;28.33;16.10;;;9.40;99.90;;;;;;5072128;28;20033;-58
2021/11/18 09:56:01;;;;;;;23.90;14.63;;;9.40;99.90;;;;;;5072077;28;20107;-57
2021/11/18 09:58:45;;;;;;;29.27;14.40;;;9.30;99.90;;;;;;5071395;28;20021;-58
2021/11/18 10:01:39;;;;;;;35.55;14.90;;;9.40;99.90;;;;;;5053031;28;20028;-58
2021/11/18 10:04:26;;;;;;;28.17;15.32;;;9.30;99.90;;;;;;5071520;28;20031;-60
2021/11/18 10:06:55;;;;;;;27.55;14.65;;;9.10;99.90;;;;;;5071889;28;20435;-56
2021/11/18 10:09:26;;;;;;;20.13;12.27;;;9.10;99.90;;;;;;5070849;28;20029;-58
2021/11/18 10:12:07;;;;;;;25.88;14.75;;;9.10;99.90;;;;;;5053517;28;20020;-58
2021/11/18 10:14:51;;;;;;;24.98;14.60;;;9.00;99.90;;;;;;5064629;28;20059;-57
2021/11/18 10:17:33;;;;;;;22.92;13.38;;;9.10;99.90;;;;;;5048845;28;1183288;-56
2021/11/18 10:20:24;;;;;;;24.98;13.73;;;9.30;99.90;;;;;;5074555;28;20055;-57
2021/11/18 10:23:12;;;;;;;24.08;13.60;;;9.50;99.90;;;;;;5092869;28;20531;-56
2021/11/18 10:25:57;;;;;;;22.08;12.85;;;9.70;99.90;;;;;;5074465;28;20024;-58
2021/11/18 10:28:22;;;;;;;24.23;14.15;;;9.90;99.90;;;;;;5073951;28;20036;-58
2021/11/18 10:31:15;;;;;;;23.85;13.15;;;10.00;99.90;;;;;;5092839;28;20324;-57
2021/11/18 10:34:12;;;;;;;22.58;12.88;;;10.10;99.90;;;;;;5092771;28;20024;-57
2021/11/18 10:37:27;;;;;;;23.83;12.80;;;10.00;99.90;;;;;;5083908;28;20066;-57
2021/11/18 10:39:55;;;;;;;24.80;13.15;;;10.10;99.90;;;;;;4993514;28;20496;-58
2021/11/18 10:42:36;;;;;;;26.27;14.18;;;9.90;99.90;;;;;;4993108;28;20030;-59
2021/11/18 10:45:31;;;;;;;23.63;12.15;;;9.60;99.90;;;;;;5005450;28;20091;-56
2021/11/18 10:48:02;;;;;;;24.65;13.27;;;9.70;99.90;;;;;;5009372;28;20076;-57
2021/11/18 10:50:48;;;;;;;22.85;13.32;;;9.70;99.90;;;;;;4995000;28;20574;-57
2021/11/18 10:53:14;;;;;;;17.73;11.98;;;9.90;99.90;;;;;;4989974;28;20041;-57
2021/11/18 10:55:44;;;;;;;23.33;11.48;;;10.00;99.90;;;;;;4990267;28;20034;-57
2021/11/18 10:58:14;;;;;;;24.02;12.75;;;9.70;99.90;;;;;;4989929;28;20110;-59
2021/11/18 11:00:55;;;;;;;21.83;12.30;;;9.70;99.90;;;;;;4990748;28;20026;-58
2021/11/18 11:03:30;;;;;;;21.55;12.23;;;9.70;99.90;;;;;;4989802;28;20039;-57
2021/11/18 11:06:14;;;;;;;24.25;13.52;;;10.00;99.90;;;;;;4989991;28;20033;-56
2021/11/18 11:08:46;;;;;;;21.25;12.82;;;10.70;99.90;;;;;;4990323;28;20034;-56
2021/11/18 11:11:21;;;;;;;25.40;12.18;;;11.10;99.90;;;;;;5054544;28;20040;-58
2021/11/18 11:14:09;;;;;;;25.10;12.48;;;11.40;99.90;;;;;;5076181;28;20107;-59
2021/11/18 11:17:11;;;;;;;18.10;11.88;;;12.00;99.90;;;;;;5091353;28;20483;-57
2021/11/18 11:20:12;;;;;;;20.30;12.50;;;12.10;99.90;;;;;;5091614;28;20036;-57
2021/11/18 11:22:56;;;;;;;21.38;13.50;;;12.40;99.90;;;;;;5092615;28;20035;-57
2021/11/18 11:25:51;;;;;;;30.58;13.30;;;12.10;99.90;;;;;;5091658;28;20028;-58
2021/11/18 11:28:43;;;;;;;17.77;11.45;;;11.80;99.90;;;;;;5084619;28;20521;-57
2021/11/18 11:31:34;;;;;;;18.92;10.63;;;11.50;99.90;;;;;;5055276;28;20047;-58
2021/11/18 11:34:23;;;;;;;19.63;11.82;;;11.00;99.90;;;;;;5063841;28;20040;-59
2021/11/18 11:37:02;;;;;;;19.58;11.48;;;10.90;99.90;;;;;;5062415;28;20035;-57
2021/11/18 11:39:48;;;;;;;17.33;9.68;;;10.80;99.90;;;;;;5090865;28;20046;-57
2021/11/18 11:42:39;;;;;;;27.92;11.73;;;10.80;99.90;;;;;;5074748;28;20077;-58
2021/11/18 11:45:20;;;;;;;19.92;11.10;;;10.70;99.90;;;;;;5082818;28;20334;-61
2021/11/18 11:48:17;;;;;;;20.63;11.85;;;10.70;99.90;;;;;;5070332;28;20029;-57
2021/11/18 11:51:13;;;;;;;21.30;11.07;;;10.40;99.90;;;;;;5060635;28;20049;-56
2021/11/18 11:53:58;;;;;;;20.67;10.98;;;10.70;99.90;;;;;;5052093;28;20111;-57
2021/11/18 11:56:34;;;;;;;26.17;11.13;;;10.90;99.90;;;;;;5069170;28;20079;-57
2021/11/18 11:59:03;;;;;;;15.70;10.43;;;11.20;99.90;;;;;;5051666;28;20515;-57
2021/11/18 12:01:55;;;;;;;19.70;10.05;;;11.50;99.90;;;;;;5069763;28;20032;-57
2021/11/18 12:04:47;;;;;;;19.85;9.98;;;12.00;99.90;;;;;;5069021;28;20025;-57
2021/11/18 12:07:15;;;;;;;;;;;12.50;99.90;;;;;;5069777;28;20050;-58
2021/11/18 12:09:47;;;;;;;15.43;10.40;;;12.50;99.90;;;;;;5052041;28;19915;-57
2021/11/18 12:12:35;;;;;;;21.83;11.50;;;12.40;99.90;;;;;;5078753;28;20024;-57
2021/11/18 12:15:08;;;;;;;19.35;11.38;;;12.40;99.90;;;;;;5070572;28;20048;-58
2021/11/18 12:17:54;;;;;;;19.52;11.77;;;12.60;99.90;;;;;;5069448;28;20056;-58
2021/11/18 12:20:25;;;;;;;18.42;11.40;;;12.50;99.90;;;;;;5069559;28;20111;-56
2021/11/18 12:22:55;;;;;;;22.52;10.50;;;12.70;99.90;;;;;;5073212;28;20082;-57
2021/11/18 12:25:33;;;;;;;19.90;10.88;;;13.00;99.90;;;;;;5069420;28;20038;-57
2021/11/18 12:28:04;;;;;;;17.60;10.88;;;12.90;99.90;;;;;;5072229;28;20028;-57
2021/11/18 12:30:29;;;;;;;24.42;11.23;;;12.60;99.90;;;;;;5090057;28;20104;-57
2021/11/18 12:33:00;;;;;;;15.45;10.18;;;12.40;99.90;;;;;;5079623;28;20040;-58
2021/11/18 12:35:30;;;;;;;16.48;9.10;;;12.00;99.90;;;;;;5083494;28;20028;-61
2021/11/18 12:38:01;;;;;;;17.02;9.73;;;11.80;99.90;;;;;;5081809;28;20024;-58
2021/11/18 12:40:33;;;;;;;26.00;9.93;;;11.60;99.90;;;;;;5070896;28;20155;-58
2021/11/18 12:43:11;;;;;;;17.38;9.05;;;11.50;99.90;;;;;;5089328;28;20330;-57
2021/11/18 12:45:45;;;;;;;19.88;9.07;;;11.40;99.90;;;;;;5080322;28;20020;-57
2021/11/18 12:48:52;;;;;;;15.00;8.85;;;11.30;99.90;;;;;;5090618;28;20063;-58
2021/11/18 12:51:18;;;;;;;14.02;7.63;;;10.90;99.90;;;;;;5071464;28;20024;-57
2021/11/18 12:53:51;;;;;;;20.50;8.88;;;10.70;99.90;;;;;;5089851;28;20028;-57